sensor_id;sensor_type;location;lat;lon;timestamp;pressure;altitude;pressure_sealevel;temperature;humidity
75513;BME280;64090;49.770;18.760;2023-04-24T00:02:13;96738.62;;;12.17;49.82
75513;BME280;64090;49.770;18.760;2023-04-24T00:10:24;96725.37;;;12.24;49.39
75513;BME280;64090;49.770;18.760;2023-04-24T00:14:45;96720.77;;;12.35;48.92
75513;BME280;64090;49.770;18.760;2023-04-24T00:41:16;96679.64;;;12.77;47.61
75513;BME280;64090;49.770;18.760;2023-04-24T01:05:52;96660.83;;;12.98;46.73
75513;BME280;64090;49.770;18.760;2023-04-24T01:09:58;96658.46;;;12.97;46.66
75513;BME280;64090;49.770;18.760;2023-04-24T01:23:22;96648.89;;;13.03;46.34
75513;BME280;64090;49.770;18.760;2023-04-24T01:34:37;96638.92;;;12.95;46.94
75513;BME280;64090;49.770;18.760;2023-04-24T01:39:07;96636.08;;;12.94;46.87
75513;BME280;64090;49.770;18.760;2023-04-24T01:59:51;96614.59;;;13.04;46.00
75513;BME280;64090;49.770;18.760;2023-04-24T02:03:42;96612.15;;;13.06;46.00
75513;BME280;64090;49.770;18.760;2023-04-24T02:07:10;96605.88;;;13.07;45.91
75513;BME280;64090;49.770;18.760;2023-04-24T02:14:43;96604.00;;;13.17;45.60
75513;BME280;64090;49.770;18.760;2023-04-24T02:18:50;96601.23;;;13.17;45.37
75513;BME280;64090;49.770;18.760;2023-04-24T02:26:57;96602.12;;;13.19;45.17
75513;BME280;64090;49.770;18.760;2023-04-24T02:35:00;96596.33;;;13.16;45.16
75513;BME280;64090;49.770;18.760;2023-04-24T02:39:00;96597.04;;;13.14;45.16
75513;BME280;64090;49.770;18.760;2023-04-24T02:43:01;96592.98;;;13.15;45.07
75513;BME280;64090;49.770;18.760;2023-04-24T02:47:10;96589.83;;;13.14;45.13
75513;BME280;64090;49.770;18.760;2023-04-24T02:55:03;96587.84;;;13.08;45.22
75513;BME280;64090;49.770;18.760;2023-04-24T03:06:24;96589.01;;;13.03;45.37
75513;BME280;64090;49.770;18.760;2023-04-24T03:09:59;96594.09;;;13.00;45.44
75513;BME280;64090;49.770;18.760;2023-04-24T03:14:00;96587.30;;;12.96;45.42
75513;BME280;64090;49.770;18.760;2023-04-24T03:18:19;96589.38;;;12.97;45.41
75513;BME280;64090;49.770;18.760;2023-04-24T03:22:05;96593.61;;;12.98;45.30
75513;BME280;64090;49.770;18.760;2023-04-24T03:30:00;96589.34;;;12.89;45.86
75513;BME280;64090;49.770;18.760;2023-04-24T03:37:44;96584.46;;;12.84;45.89
75513;BME280;64090;49.770;18.760;2023-04-24T03:45:41;96583.86;;;12.83;45.97
75513;BME280;64090;49.770;18.760;2023-04-24T04:01:44;96586.26;;;13.10;45.81
75513;BME280;64090;49.770;18.760;2023-04-24T04:05:27;96588.18;;;13.33;45.77
75513;BME280;64090;49.770;18.760;2023-04-24T04:09:06;96586.52;;;13.85;45.06
75513;BME280;64090;49.770;18.760;2023-04-24T04:12:49;96583.92;;;14.10;44.27
75513;BME280;64090;49.770;18.760;2023-04-24T04:17:17;96578.36;;;14.57;44.20
75513;BME280;64090;49.770;18.760;2023-04-24T04:21:50;96583.98;;;14.44;44.24
75513;BME280;64090;49.770;18.760;2023-04-24T04:25:40;96585.25;;;14.40;44.08
75513;BME280;64090;49.770;18.760;2023-04-24T04:29:27;96589.71;;;14.45;44.54
75513;BME280;64090;49.770;18.760;2023-04-24T04:33:49;96585.13;;;14.54;44.35
75513;BME280;64090;49.770;18.760;2023-04-24T04:37:16;96583.21;;;14.63;44.31
75513;BME280;64090;49.770;18.760;2023-04-24T04:44:40;96580.53;;;14.84;43.93
75513;BME280;64090;49.770;18.760;2023-04-24T04:48:39;96576.96;;;14.87;43.90
75513;BME280;64090;49.770;18.760;2023-04-24T04:52:27;96573.71;;;14.93;43.66
75513;BME280;64090;49.770;18.760;2023-04-24T04:56:11;96573.14;;;14.98;43.51
75513;BME280;64090;49.770;18.760;2023-04-24T04:59:31;96568.91;;;15.01;43.38
75513;BME280;64090;49.770;18.760;2023-04-24T05:03:56;96572.42;;;15.07;43.62
75513;BME280;64090;49.770;18.760;2023-04-24T05:08:20;96574.13;;;15.25;43.26
75513;BME280;64090;49.770;18.760;2023-04-24T05:12:04;96569.68;;;15.41;42.10
75513;BME280;64090;49.770;18.760;2023-04-24T05:15:13;96570.86;;;15.73;42.55
75513;BME280;64090;49.770;18.760;2023-04-24T05:18:38;96573.94;;;15.97;42.07
75513;BME280;64090;49.770;18.760;2023-04-24T05:22:19;96571.73;;;16.11;41.96
75513;BME280;64090;49.770;18.760;2023-04-24T05:26:17;96571.94;;;16.17;41.12
75513;BME280;64090;49.770;18.760;2023-04-24T05:30:04;96573.59;;;16.31;41.61
75513;BME280;64090;49.770;18.760;2023-04-24T05:33:15;96570.39;;;16.45;40.36
75513;BME280;64090;49.770;18.760;2023-04-24T05:36:41;96570.92;;;16.69;40.66
75513;BME280;64090;49.770;18.760;2023-04-24T05:39:46;96562.10;;;16.97;40.03
75513;BME280;64090;49.770;18.760;2023-04-24T05:42:54;96562.20;;;17.25;40.11
75513;BME280;64090;49.770;18.760;2023-04-24T05:46:29;96557.37;;;17.66;39.99
75513;BME280;64090;49.770;18.760;2023-04-24T05:49:39;96557.21;;;17.95;39.97
75513;BME280;64090;49.770;18.760;2023-04-24T05:53:30;96553.63;;;18.06;39.40
75513;BME280;64090;49.770;18.760;2023-04-24T05:56:37;96554.78;;;18.27;39.50
75513;BME280;64090;49.770;18.760;2023-04-24T06:00:09;96552.37;;;18.48;39.13
75513;BME280;64090;49.770;18.760;2023-04-24T06:03:32;96552.61;;;18.77;38.49
75513;BME280;64090;49.770;18.760;2023-04-24T06:06:45;96549.95;;;19.14;38.34
75513;BME280;64090;49.770;18.760;2023-04-24T06:09:57;96548.19;;;19.45;38.14
75513;BME280;64090;49.770;18.760;2023-04-24T06:13:47;96547.27;;;19.56;37.04
75513;BME280;64090;49.770;18.760;2023-04-24T06:16:57;96538.05;;;19.85;36.79
75513;BME280;64090;49.770;18.760;2023-04-24T06:20:49;96533.88;;;19.97;35.99
75513;BME280;64090;49.770;18.760;2023-04-24T06:23:53;96532.45;;;20.05;36.93
75513;BME280;64090;49.770;18.760;2023-04-24T06:27:13;96531.00;;;20.11;37.54
75513;BME280;64090;49.770;18.760;2023-04-24T06:30:39;96526.30;;;20.11;37.25
75513;BME280;64090;49.770;18.760;2023-04-24T06:34:51;96525.17;;;20.01;36.59
75513;BME280;64090;49.770;18.760;2023-04-24T06:38:56;96528.52;;;20.04;36.87
75513;BME280;64090;49.770;18.760;2023-04-24T06:42:25;96523.34;;;20.23;36.51
75513;BME280;64090;49.770;18.760;2023-04-24T06:46:13;96524.79;;;20.44;36.25
75513;BME280;64090;49.770;18.760;2023-04-24T06:49:41;96521.86;;;20.48;35.33
75513;BME280;64090;49.770;18.760;2023-04-24T06:53:00;96523.67;;;20.70;36.07
75513;BME280;64090;49.770;18.760;2023-04-24T06:56:20;96524.13;;;20.82;36.03
75513;BME280;64090;49.770;18.760;2023-04-24T06:59:47;96525.41;;;21.11;36.18
75513;BME280;64090;49.770;18.760;2023-04-24T07:02:55;96525.84;;;21.32;35.25
75513;BME280;64090;49.770;18.760;2023-04-24T07:06:10;96520.84;;;21.51;35.18
75513;BME280;64090;49.770;18.760;2023-04-24T07:09:52;96521.27;;;21.44;34.67
75513;BME280;64090;49.770;18.760;2023-04-24T07:13:23;96521.52;;;21.48;34.28
75513;BME280;64090;49.770;18.760;2023-04-24T07:17:23;96518.48;;;21.64;34.69
75513;BME280;64090;49.770;18.760;2023-04-24T07:20:50;96516.23;;;21.53;34.18
75513;BME280;64090;49.770;18.760;2023-04-24T07:24:13;96518.44;;;21.57;35.41
75513;BME280;64090;49.770;18.760;2023-04-24T07:27:44;96520.63;;;21.60;35.16
75513;BME280;64090;49.770;18.760;2023-04-24T07:31:10;96517.88;;;21.76;34.96
75513;BME280;64090;49.770;18.760;2023-04-24T07:34:35;96516.38;;;21.86;34.66
75513;BME280;64090;49.770;18.760;2023-04-24T07:38:46;96517.85;;;22.05;35.41
75513;BME280;64090;49.770;18.760;2023-04-24T07:42:02;96518.11;;;22.34;34.59
75513;BME280;64090;49.770;18.760;2023-04-24T07:45:25;96517.83;;;22.53;33.71
75513;BME280;64090;49.770;18.760;2023-04-24T07:48:53;96516.48;;;22.54;33.16
75513;BME280;64090;49.770;18.760;2023-04-24T07:52:20;96516.27;;;22.54;33.52
75513;BME280;64090;49.770;18.760;2023-04-24T07:55:58;96519.00;;;22.60;34.72
75513;BME280;64090;49.770;18.760;2023-04-24T07:59:18;96518.42;;;22.49;35.39
75513;BME280;64090;49.770;18.760;2023-04-24T08:02:31;96514.77;;;22.33;34.96
75513;BME280;64090;49.770;18.760;2023-04-24T08:05:38;96510.42;;;22.58;36.00
75513;BME280;64090;49.770;18.760;2023-04-24T08:09:24;96509.20;;;22.65;36.11
75513;BME280;64090;49.770;18.760;2023-04-24T08:12:34;96510.86;;;22.77;35.88
75513;BME280;64090;49.770;18.760;2023-04-24T08:15:46;96512.49;;;22.68;35.46
75513;BME280;64090;49.770;18.760;2023-04-24T08:18:54;96508.08;;;22.63;35.92
75513;BME280;64090;49.770;18.760;2023-04-24T08:22:15;96508.56;;;22.28;35.83
75513;BME280;64090;49.770;18.760;2023-04-24T08:25:30;96503.84;;;21.96;35.73
75513;BME280;64090;49.770;18.760;2023-04-24T08:28:36;96506.52;;;21.73;36.30
75513;BME280;64090;49.770;18.760;2023-04-24T08:32:03;96509.67;;;21.59;37.70
75513;BME280;64090;49.770;18.760;2023-04-24T08:35:36;96512.65;;;21.61;37.61
75513;BME280;64090;49.770;18.760;2023-04-24T08:39:38;96516.17;;;21.58;37.64
75513;BME280;64090;49.770;18.760;2023-04-24T08:43:21;96515.02;;;21.49;37.46
75513;BME280;64090;49.770;18.760;2023-04-24T08:46:29;96519.02;;;21.17;37.34
75513;BME280;64090;49.770;18.760;2023-04-24T08:49:38;96516.79;;;21.20;37.61
75513;BME280;64090;49.770;18.760;2023-04-24T08:52:47;96518.10;;;21.12;38.16
75513;BME280;64090;49.770;18.760;2023-04-24T08:56:12;96523.14;;;21.02;37.91
75513;BME280;64090;49.770;18.760;2023-04-24T08:59:37;96524.72;;;20.87;38.73
75513;BME280;64090;49.770;18.760;2023-04-24T09:02:51;96524.81;;;20.75;37.70
75513;BME280;64090;49.770;18.760;2023-04-24T09:06:18;96524.11;;;20.61;38.07
75513;BME280;64090;49.770;18.760;2023-04-24T09:09:48;96523.92;;;20.53;37.94
75513;BME280;64090;49.770;18.760;2023-04-24T09:13:17;96526.65;;;20.33;37.98
75513;BME280;64090;49.770;18.760;2023-04-24T09:16:27;96527.90;;;20.27;39.11
75513;BME280;64090;49.770;18.760;2023-04-24T09:20:07;96526.79;;;20.23;39.04
75513;BME280;64090;49.770;18.760;2023-04-24T09:23:44;96530.03;;;20.14;39.35
75513;BME280;64090;49.770;18.760;2023-04-24T09:27:19;96532.40;;;20.13;39.62
75513;BME280;64090;49.770;18.760;2023-04-24T09:31:13;96526.92;;;20.36;40.05
75513;BME280;64090;49.770;18.760;2023-04-24T09:34:28;96521.73;;;20.64;39.54
75513;BME280;64090;49.770;18.760;2023-04-24T09:37:51;96518.84;;;20.82;39.22
75513;BME280;64090;49.770;18.760;2023-04-24T09:41:55;96514.03;;;21.05;38.95
75513;BME280;64090;49.770;18.760;2023-04-24T09:46:07;96512.34;;;21.41;38.47
75513;BME280;64090;49.770;18.760;2023-04-24T09:49:24;96508.77;;;21.58;38.02
75513;BME280;64090;49.770;18.760;2023-04-24T09:52:57;96502.45;;;21.53;35.79
75513;BME280;64090;49.770;18.760;2023-04-24T09:56:09;96508.40;;;21.51;37.21
75513;BME280;64090;49.770;18.760;2023-04-24T09:59:34;96505.63;;;21.47;37.59
75513;BME280;64090;49.770;18.760;2023-04-24T10:03:06;96504.85;;;21.33;37.21
75513;BME280;64090;49.770;18.760;2023-04-24T10:06:13;96505.69;;;21.14;37.50
75513;BME280;64090;49.770;18.760;2023-04-24T10:09:30;96503.67;;;20.81;38.49
75513;BME280;64090;49.770;18.760;2023-04-24T10:12:39;96500.98;;;20.13;38.88
75513;BME280;64090;49.770;18.760;2023-04-24T10:16:52;96504.83;;;19.49;40.31
75513;BME280;64090;49.770;18.760;2023-04-24T10:20:55;96509.01;;;18.97;41.60
75513;BME280;64090;49.770;18.760;2023-04-24T10:24:03;96512.70;;;18.66;42.17
75513;BME280;64090;49.770;18.760;2023-04-24T10:27:09;96514.35;;;18.23;43.26
75513;BME280;64090;49.770;18.760;2023-04-24T10:30:34;96517.89;;;17.74;43.84
75513;BME280;64090;49.770;18.760;2023-04-24T10:34:05;96516.89;;;17.41;44.50
75513;BME280;64090;49.770;18.760;2023-04-24T10:37:36;96529.52;;;17.13;44.74
75513;BME280;64090;49.770;18.760;2023-04-24T10:40:44;96540.84;;;16.94;45.91
75513;BME280;64090;49.770;18.760;2023-04-24T10:44:35;96544.88;;;16.78;46.55
75513;BME280;64090;49.770;18.760;2023-04-24T10:47:50;96545.02;;;16.64;46.89
75513;BME280;64090;49.770;18.760;2023-04-24T10:51:01;96550.86;;;16.47;47.59
75513;BME280;64090;49.770;18.760;2023-04-24T10:54:54;96558.85;;;16.29;49.05
75513;BME280;64090;49.770;18.760;2023-04-24T10:58:44;96564.11;;;16.10;50.82
75513;BME280;64090;49.770;18.760;2023-04-24T11:02:00;96564.02;;;15.97;51.47
75513;BME280;64090;49.770;18.760;2023-04-24T11:05:16;96566.44;;;15.88;52.12
75513;BME280;64090;49.770;18.760;2023-04-24T11:09:26;96568.03;;;15.73;55.48
75513;BME280;64090;49.770;18.760;2023-04-24T11:12:56;96563.27;;;15.54;58.01
75513;BME280;64090;49.770;18.760;2023-04-24T11:17:02;96563.48;;;15.64;54.03
75513;BME280;64090;49.770;18.760;2023-04-24T11:20:09;96563.70;;;15.76;56.46
75513;BME280;64090;49.770;18.760;2023-04-24T11:23:36;96564.40;;;15.81;57.93
75513;BME280;64090;49.770;18.760;2023-04-24T11:26:53;96559.57;;;15.85;55.33
75513;BME280;64090;49.770;18.760;2023-04-24T11:30:02;96555.54;;;16.00;55.67
75513;BME280;64090;49.770;18.760;2023-04-24T11:33:48;96559.73;;;16.13;56.99
75513;BME280;64090;49.770;18.760;2023-04-24T11:37:36;96560.89;;;16.21;57.20
75513;BME280;64090;49.770;18.760;2023-04-24T11:41:01;96559.80;;;16.30;56.31
75513;BME280;64090;49.770;18.760;2023-04-24T11:44:08;96565.48;;;16.34;57.52
75513;BME280;64090;49.770;18.760;2023-04-24T11:47:16;96566.38;;;16.37;57.11
75513;BME280;64090;49.770;18.760;2023-04-24T11:50:47;96563.77;;;16.37;56.11
75513;BME280;64090;49.770;18.760;2023-04-24T11:54:34;96562.10;;;16.35;56.30
75513;BME280;64090;49.770;18.760;2023-04-24T11:57:58;96561.41;;;16.36;56.55
75513;BME280;64090;49.770;18.760;2023-04-24T12:01:49;96561.73;;;16.28;57.35
75513;BME280;64090;49.770;18.760;2023-04-24T12:04:55;96559.13;;;16.12;56.76
75513;BME280;64090;49.770;18.760;2023-04-24T12:08:49;96556.84;;;15.89;57.73
75513;BME280;64090;49.770;18.760;2023-04-24T12:12:20;96551.02;;;15.69;58.30
75513;BME280;64090;49.770;18.760;2023-04-24T12:16:02;96550.30;;;15.56;58.12
75513;BME280;64090;49.770;18.760;2023-04-24T12:19:18;96553.24;;;15.52;58.05
75513;BME280;64090;49.770;18.760;2023-04-24T12:22:50;96555.43;;;15.54;58.73
75513;BME280;64090;49.770;18.760;2023-04-24T12:26:11;96555.65;;;15.46;59.00
75513;BME280;64090;49.770;18.760;2023-04-24T12:29:27;96562.85;;;15.30;58.98
75513;BME280;64090;49.770;18.760;2023-04-24T12:32:48;96561.69;;;14.98;59.61
75513;BME280;64090;49.770;18.760;2023-04-24T12:36:12;96571.70;;;14.73;60.56
75513;BME280;64090;49.770;18.760;2023-04-24T12:39:44;96567.13;;;14.42;61.41
75513;BME280;64090;49.770;18.760;2023-04-24T12:43:18;96564.98;;;14.17;62.39
75513;BME280;64090;49.770;18.760;2023-04-24T12:46:43;96565.83;;;13.99;62.78
75513;BME280;64090;49.770;18.760;2023-04-24T12:49:54;96564.11;;;13.85;63.63
75513;BME280;64090;49.770;18.760;2023-04-24T12:53:35;96564.69;;;13.72;65.58
75513;BME280;64090;49.770;18.760;2023-04-24T12:56:51;96565.27;;;13.63;65.55
75513;BME280;64090;49.770;18.760;2023-04-24T13:00:18;96565.77;;;13.59;65.70
75513;BME280;64090;49.770;18.760;2023-04-24T13:04:05;96562.24;;;13.55;65.77
75513;BME280;64090;49.770;18.760;2023-04-24T13:07:49;96559.42;;;13.50;65.65
75513;BME280;64090;49.770;18.760;2023-04-24T13:11:17;96553.41;;;13.40;66.28
75513;BME280;64090;49.770;18.760;2023-04-24T13:14:33;96553.75;;;13.37;66.04
75513;BME280;64090;49.770;18.760;2023-04-24T13:17:49;96551.77;;;13.30;65.94
75513;BME280;64090;49.770;18.760;2023-04-24T13:21:17;96554.00;;;13.23;67.07
75513;BME280;64090;49.770;18.760;2023-04-24T13:25:20;96549.67;;;13.22;66.51
75513;BME280;64090;49.770;18.760;2023-04-24T13:28:48;96546.77;;;13.25;67.40
75513;BME280;64090;49.770;18.760;2023-04-24T13:32:02;96541.42;;;13.24;67.52
75513;BME280;64090;49.770;18.760;2023-04-24T13:35:29;96541.59;;;13.28;67.21
75513;BME280;64090;49.770;18.760;2023-04-24T13:38:52;96536.73;;;13.33;67.67
75513;BME280;64090;49.770;18.760;2023-04-24T13:42:18;96534.11;;;13.38;67.40
75513;BME280;64090;49.770;18.760;2023-04-24T13:46:03;96530.56;;;13.41;67.32
75513;BME280;64090;49.770;18.760;2023-04-24T13:49:28;96525.44;;;13.40;67.27
75513;BME280;64090;49.770;18.760;2023-04-24T13:53:06;96521.02;;;13.36;67.51
75513;BME280;64090;49.770;18.760;2023-04-24T13:56:33;96516.00;;;13.37;67.44
75513;BME280;64090;49.770;18.760;2023-04-24T13:59:57;96517.14;;;13.37;68.02
75513;BME280;64090;49.770;18.760;2023-04-24T14:03:28;96513.75;;;13.35;67.38
75513;BME280;64090;49.770;18.760;2023-04-24T14:06:58;96510.37;;;13.33;68.95
75513;BME280;64090;49.770;18.760;2023-04-24T14:10:24;96511.48;;;13.18;70.69
75513;BME280;64090;49.770;18.760;2023-04-24T14:13:52;96513.19;;;13.04;71.12
75513;BME280;64090;49.770;18.760;2023-04-24T14:17:21;96512.64;;;12.91;70.85
75513;BME280;64090;49.770;18.760;2023-04-24T14:20:54;96510.21;;;12.84;69.99
75513;BME280;64090;49.770;18.760;2023-04-24T14:24:43;96504.30;;;12.75;70.98
75513;BME280;64090;49.770;18.760;2023-04-24T14:28:08;96507.95;;;12.67;70.57
75513;BME280;64090;49.770;18.760;2023-04-24T14:31:32;96505.61;;;12.60;70.62
75513;BME280;64090;49.770;18.760;2023-04-24T14:34:55;96504.34;;;12.56;69.97
75513;BME280;64090;49.770;18.760;2023-04-24T14:38:29;96501.64;;;12.52;70.90
75513;BME280;64090;49.770;18.760;2023-04-24T14:41:59;96495.83;;;12.48;71.04
75513;BME280;64090;49.770;18.760;2023-04-24T14:45:48;96495.30;;;12.44;70.75
75513;BME280;64090;49.770;18.760;2023-04-24T14:49:23;96494.00;;;12.42;70.48
75513;BME280;64090;49.770;18.760;2023-04-24T14:53:00;96489.77;;;12.42;70.43
75513;BME280;64090;49.770;18.760;2023-04-24T14:56:37;96492.15;;;12.44;70.64
75513;BME280;64090;49.770;18.760;2023-04-24T15:00:22;96492.70;;;12.45;70.49
75513;BME280;64090;49.770;18.760;2023-04-24T15:03:50;96491.70;;;12.46;70.33
75513;BME280;64090;49.770;18.760;2023-04-24T15:07:25;96488.19;;;12.47;70.41
75513;BME280;64090;49.770;18.760;2023-04-24T15:11:04;96485.66;;;12.45;70.77
75513;BME280;64090;49.770;18.760;2023-04-24T15:14:38;96482.43;;;12.43;70.75
75513;BME280;64090;49.770;18.760;2023-04-24T15:18:23;96489.13;;;12.41;70.14
75513;BME280;64090;49.770;18.760;2023-04-24T15:21:46;96487.15;;;12.40;70.82
75513;BME280;64090;49.770;18.760;2023-04-24T15:25:25;96483.80;;;12.41;70.87
75513;BME280;64090;49.770;18.760;2023-04-24T15:28:54;96485.48;;;12.44;70.57
75513;BME280;64090;49.770;18.760;2023-04-24T15:32:26;96489.17;;;12.49;70.22
75513;BME280;64090;49.770;18.760;2023-04-24T15:35:59;96487.29;;;12.57;70.16
75513;BME280;64090;49.770;18.760;2023-04-24T15:39:30;96486.42;;;12.64;69.84
75513;BME280;64090;49.770;18.760;2023-04-24T15:42:50;96484.42;;;12.68;69.86
75513;BME280;64090;49.770;18.760;2023-04-24T15:46:15;96477.64;;;12.72;70.10
75513;BME280;64090;49.770;18.760;2023-04-24T15:49:46;96476.91;;;12.77;69.59
75513;BME280;64090;49.770;18.760;2023-04-24T15:53:13;96477.19;;;12.83;69.56
75513;BME280;64090;49.770;18.760;2023-04-24T15:57:07;96475.66;;;12.95;69.55
75513;BME280;64090;49.770;18.760;2023-04-24T16:00:41;96479.60;;;13.06;69.27
75513;BME280;64090;49.770;18.760;2023-04-24T16:04:07;96476.55;;;13.11;69.97
75513;BME280;64090;49.770;18.760;2023-04-24T16:07:33;96473.40;;;13.16;69.35
75513;BME280;64090;49.770;18.760;2023-04-24T16:11:25;96471.94;;;13.14;69.37
75513;BME280;64090;49.770;18.760;2023-04-24T16:14:52;96474.50;;;13.09;69.60
75513;BME280;64090;49.770;18.760;2023-04-24T16:18:24;96472.38;;;13.03;69.42
75513;BME280;64090;49.770;18.760;2023-04-24T16:22:13;96474.35;;;12.98;70.28
75513;BME280;64090;49.770;18.760;2023-04-24T16:25:47;96472.11;;;12.93;70.43
75513;BME280;64090;49.770;18.760;2023-04-24T16:29:16;96469.89;;;12.89;70.63
75513;BME280;64090;49.770;18.760;2023-04-24T16:32:43;96467.70;;;12.85;70.41
75513;BME280;64090;49.770;18.760;2023-04-24T16:36:19;96472.70;;;12.83;70.40
75513;BME280;64090;49.770;18.760;2023-04-24T16:39:48;96464.89;;;12.81;70.33
75513;BME280;64090;49.770;18.760;2023-04-24T16:43:37;96464.07;;;12.79;70.39
75513;BME280;64090;49.770;18.760;2023-04-24T16:47:09;96465.51;;;12.78;70.29
75513;BME280;64090;49.770;18.760;2023-04-24T16:50:44;96461.30;;;12.73;70.42
75513;BME280;64090;49.770;18.760;2023-04-24T16:54:11;96465.76;;;12.67;70.51
75513;BME280;64090;49.770;18.760;2023-04-24T16:57:39;96464.67;;;12.61;70.22
75513;BME280;64090;49.770;18.760;2023-04-24T17:01:35;96462.95;;;12.55;71.23
75513;BME280;64090;49.770;18.760;2023-04-24T17:05:06;96462.03;;;12.48;71.77
75513;BME280;64090;49.770;18.760;2023-04-24T17:08:45;96460.31;;;12.42;71.32
75513;BME280;64090;49.770;18.760;2023-04-24T17:12:12;96464.61;;;12.36;70.82
75513;BME280;64090;49.770;18.760;2023-04-24T17:15:38;96465.45;;;12.32;70.89
75513;BME280;64090;49.770;18.760;2023-04-24T17:19:03;96467.89;;;12.27;71.02
75513;BME280;64090;49.770;18.760;2023-04-24T17:22:30;96468.99;;;12.21;71.31
75513;BME280;64090;49.770;18.760;2023-04-24T17:25:55;96468.72;;;12.16;71.46
75513;BME280;64090;49.770;18.760;2023-04-24T17:29:21;96472.08;;;12.13;72.02
75513;BME280;64090;49.770;18.760;2023-04-24T17:33:06;96472.33;;;12.07;71.50
75513;BME280;64090;49.770;18.760;2023-04-24T17:36:48;96472.05;;;12.01;71.96
75513;BME280;64090;49.770;18.760;2023-04-24T17:40:16;96482.98;;;11.95;71.83
75513;BME280;64090;49.770;18.760;2023-04-24T17:44:01;96484.44;;;11.89;71.92
75513;BME280;64090;49.770;18.760;2023-04-24T17:47:42;96485.89;;;11.84;72.04
75513;BME280;64090;49.770;18.760;2023-04-24T17:51:11;96486.84;;;11.80;72.06
75513;BME280;64090;49.770;18.760;2023-04-24T17:55:00;96490.90;;;11.78;72.63
75513;BME280;64090;49.770;18.760;2023-04-24T17:58:32;96496.83;;;11.76;72.92
75513;BME280;64090;49.770;18.760;2023-04-24T18:02:06;96504.53;;;11.78;71.79
75513;BME280;64090;49.770;18.760;2023-04-24T18:05:32;96511.88;;;11.77;72.35
75513;BME280;64090;49.770;18.760;2023-04-24T18:09:16;96520.56;;;11.70;75.05
75513;BME280;64090;49.770;18.760;2023-04-24T18:12:50;96523.02;;;11.61;74.84
75513;BME280;64090;49.770;18.760;2023-04-24T18:16:15;96523.14;;;11.55;73.75
75513;BME280;64090;49.770;18.760;2023-04-24T18:19:56;96527.80;;;11.47;75.09
75513;BME280;64090;49.770;18.760;2023-04-24T18:23:18;96528.31;;;11.40;76.64
75513;BME280;64090;49.770;18.760;2023-04-24T18:26:43;96537.75;;;11.32;78.60
75513;BME280;64090;49.770;18.760;2023-04-24T18:30:08;96538.34;;;11.23;78.85
75513;BME280;64090;49.770;18.760;2023-04-24T18:34:02;96540.38;;;11.15;78.21
75513;BME280;64090;49.770;18.760;2023-04-24T18:38:03;96542.62;;;11.12;77.31
75513;BME280;64090;49.770;18.760;2023-04-24T18:41:28;96544.73;;;11.11;76.48
75513;BME280;64090;49.770;18.760;2023-04-24T18:44:44;96548.31;;;11.10;77.53
75513;BME280;64090;49.770;18.760;2023-04-24T18:48:20;96546.89;;;11.07;80.98
75513;BME280;64090;49.770;18.760;2023-04-24T18:51:46;96554.90;;;11.07;81.09
75513;BME280;64090;49.770;18.760;2023-04-24T18:55:26;96561.45;;;11.04;81.85
75513;BME280;64090;49.770;18.760;2023-04-24T18:58:58;96561.60;;;11.01;81.53
75513;BME280;64090;49.770;18.760;2023-04-24T19:02:10;96565.27;;;11.01;79.94
75513;BME280;64090;49.770;18.760;2023-04-24T19:05:42;96565.33;;;11.00;80.63
75513;BME280;64090;49.770;18.760;2023-04-24T19:09:05;96569.98;;;11.00;80.77
75513;BME280;64090;49.770;18.760;2023-04-24T19:12:37;96571.42;;;11.00;80.41
75513;BME280;64090;49.770;18.760;2023-04-24T19:16:02;96576.86;;;11.01;79.83
75513;BME280;64090;49.770;18.760;2023-04-24T19:19:30;96576.46;;;10.99;79.90
75513;BME280;64090;49.770;18.760;2023-04-24T19:23:03;96575.05;;;10.97;80.85
75513;BME280;64090;49.770;18.760;2023-04-24T19:26:37;96576.21;;;10.94;81.10
75513;BME280;64090;49.770;18.760;2023-04-24T19:30:10;96579.12;;;10.91;80.68
75513;BME280;64090;49.770;18.760;2023-04-24T19:33:36;96573.06;;;10.86;81.12
75513;BME280;64090;49.770;18.760;2023-04-24T19:36:59;96576.34;;;10.82;81.19
75513;BME280;64090;49.770;18.760;2023-04-24T19:40:32;96577.95;;;10.77;81.61
75513;BME280;64090;49.770;18.760;2023-04-24T19:44:04;96578.13;;;10.73;82.19
75513;BME280;64090;49.770;18.760;2023-04-24T19:55:53;96581.33;;;10.66;82.76
75513;BME280;64090;49.770;18.760;2023-04-24T19:59:44;96589.80;;;10.59;85.98
75513;BME280;64090;49.770;18.760;2023-04-24T20:03:35;96586.69;;;10.57;83.07
75513;BME280;64090;49.770;18.760;2023-04-24T20:07:27;96577.77;;;10.56;84.68
75513;BME280;64090;49.770;18.760;2023-04-24T20:11:03;96579.31;;;10.56;84.47
75513;BME280;64090;49.770;18.760;2023-04-24T20:14:32;96581.66;;;10.55;86.99
75513;BME280;64090;49.770;18.760;2023-04-24T20:18:03;96573.99;;;10.55;83.22
75513;BME280;64090;49.770;18.760;2023-04-24T20:21:36;96577.41;;;10.54;84.10
75513;BME280;64090;49.770;18.760;2023-04-24T20:25:09;96577.60;;;10.55;83.22
75513;BME280;64090;49.770;18.760;2023-04-24T20:29:05;96580.22;;;10.56;83.61
75513;BME280;64090;49.770;18.760;2023-04-24T20:32:32;96577.03;;;10.53;84.15
75513;BME280;64090;49.770;18.760;2023-04-24T20:35:59;96580.74;;;10.53;84.43
75513;BME280;64090;49.770;18.760;2023-04-24T20:40:19;96585.19;;;10.52;82.92
75513;BME280;64090;49.770;18.760;2023-04-24T20:43:56;96585.90;;;10.51;84.66
75513;BME280;64090;49.770;18.760;2023-04-24T20:47:18;96590.55;;;10.49;84.07
75513;BME280;64090;49.770;18.760;2023-04-24T20:50:43;96591.15;;;10.48;84.29
75513;BME280;64090;49.770;18.760;2023-04-24T20:54:32;96594.48;;;10.45;84.39
75513;BME280;64090;49.770;18.760;2023-04-24T20:58:02;96592.81;;;10.41;86.54
75513;BME280;64090;49.770;18.760;2023-04-24T21:02:06;96591.16;;;10.36;85.94